createdAt,value
2022-08-19T05:16:16.503Z,99725.28
2022-08-19T05:19:22.708Z,99726.41
2022-08-19T05:22:28.704Z,99720.00
2022-08-19T05:25:20.591Z,99732.22
2022-08-19T05:28:09.257Z,99737.66
2022-08-19T05:30:57.875Z,99749.69
2022-08-19T05:33:48.549Z,99719.03
2022-08-19T05:36:40.642Z,99768.78
2022-08-19T05:39:31.488Z,99776.41
2022-08-19T05:42:21.150Z,99783.41
2022-08-19T05:45:10.904Z,99792.44
2022-08-19T05:47:59.539Z,99793.19
2022-08-19T05:50:51.113Z,99794.31
2022-08-19T05:53:39.806Z,99793.50
2022-08-19T05:56:28.572Z,99803.53
2022-08-19T05:59:18.154Z,99805.44
2022-08-19T06:02:08.502Z,99796.50
2022-08-19T06:04:57.115Z,99803.75
2022-08-19T06:07:47.766Z,99801.09
2022-08-19T06:10:37.785Z,99808.72
2022-08-19T06:13:26.742Z,99813.28
2022-08-19T06:16:23.182Z,99810.00
2022-08-19T06:19:13.675Z,99793.16
2022-08-19T06:22:02.677Z,99814.41
2022-08-19T06:24:53.562Z,99698.59
2022-08-19T06:28:11.481Z,99808.78
2022-08-19T06:30:51.012Z,99812.25
2022-08-19T06:33:40.011Z,99818.84
2022-08-19T06:36:32.189Z,99812.72
2022-08-19T06:39:23.787Z,99817.34
2022-08-19T06:42:17.669Z,99824.13
2022-08-19T06:45:09.625Z,99833.06
2022-08-19T06:48:00.092Z,99811.69
2022-08-19T06:50:52.452Z,99817.50
2022-08-19T06:53:41.401Z,99820.75
2022-08-19T06:56:32.718Z,99821.06
2022-08-19T06:59:25.264Z,99796.22
2022-08-19T07:02:13.847Z,99820.09
2022-08-19T07:05:06.679Z,99816.53
2022-08-19T07:07:57.503Z,99822.91
2022-08-19T07:10:48.884Z,99829.09
2022-08-19T07:13:38.671Z,99826.53
2022-08-19T07:16:29.397Z,99827.63
2022-08-19T07:19:19.328Z,99825.53
2022-08-19T07:22:13.105Z,99795.13
2022-08-19T07:25:03.712Z,99827.63
2022-08-19T07:27:54.161Z,99810.47
2022-08-19T07:30:43.169Z,99825.16
2022-08-19T07:33:37.462Z,99826.41
2022-08-19T07:36:30.044Z,99831.28
2022-08-19T07:39:21.248Z,99838.16
2022-08-19T07:42:11.429Z,99838.88
2022-08-19T07:45:02.379Z,99842.19
2022-08-19T07:47:51.407Z,99840.78
2022-08-19T07:50:41.380Z,99811.94
2022-08-19T07:53:31.087Z,99846.13
2022-08-19T07:56:20.828Z,99838.50
2022-08-19T07:59:10.097Z,99849.38
2022-08-19T08:02:00.633Z,99849.81
2022-08-19T08:05:06.806Z,99850.72
2022-08-19T08:08:13.484Z,99846.78
2022-08-19T08:11:02.332Z,99843.22
2022-08-19T08:14:01.043Z,99846.88
2022-08-19T08:16:53.255Z,99726.81
2022-08-19T08:19:43.322Z,99845.84
2022-08-19T08:22:50.000Z,99838.00
2022-08-19T08:25:40.356Z,99821.06
2022-08-19T08:28:30.038Z,99842.50
2022-08-19T08:31:19.545Z,99852.63
2022-08-19T08:34:09.369Z,99843.69
2022-08-19T08:36:58.230Z,99851.38
2022-08-19T08:39:46.854Z,99858.50
2022-08-19T08:42:43.044Z,99853.84
2022-08-19T08:45:32.984Z,99867.03
2022-08-19T08:48:38.010Z,99861.16
2022-08-19T08:51:34.542Z,99820.94
2022-08-19T08:54:34.800Z,99857.22
2022-08-19T08:57:30.576Z,99868.31
2022-08-19T09:00:30.454Z,99871.19
2022-08-19T09:03:21.258Z,99865.38
2022-08-19T09:06:17.437Z,99867.81
2022-08-19T09:09:11.813Z,99836.53
2022-08-19T09:12:07.900Z,99849.28
2022-08-19T09:15:02.658Z,99858.25
2022-08-19T09:17:52.548Z,99861.22
2022-08-19T09:20:41.346Z,99872.56
2022-08-19T09:23:31.616Z,99858.06
2022-08-19T09:26:25.016Z,99740.91
2022-08-19T09:29:33.513Z,99851.94
2022-08-19T09:32:26.618Z,99854.44
2022-08-19T09:35:17.587Z,99865.13
2022-08-19T09:38:06.350Z,99847.63
2022-08-19T09:40:54.877Z,99843.84
2022-08-19T09:43:47.946Z,99842.91
2022-08-19T09:46:37.108Z,99844.34
2022-08-19T09:49:25.597Z,99844.63
2022-08-19T09:52:16.428Z,99841.84
2022-08-19T09:55:07.235Z,99846.28
2022-08-19T09:57:57.364Z,99843.88
2022-08-19T10:00:50.967Z,99851.91
2022-08-19T10:03:40.263Z,99849.81
2022-08-19T10:06:44.040Z,99848.72
2022-08-19T10:09:36.500Z,99856.56
2022-08-19T10:12:25.564Z,99860.56
2022-08-19T10:15:17.720Z,99856.16
2022-08-19T10:18:19.464Z,99864.97
2022-08-19T10:21:11.726Z,99859.09
2022-08-19T10:24:04.680Z,99858.00
2022-08-19T10:26:57.141Z,99857.84
2022-08-19T10:29:48.888Z,99851.66
2022-08-19T10:32:37.468Z,99851.59
2022-08-19T10:35:26.492Z,99847.34
2022-08-19T10:38:15.900Z,99847.13
2022-08-19T10:41:12.448Z,99841.88
2022-08-19T10:44:05.484Z,99839.50
2022-08-19T10:46:53.995Z,99828.28
2022-08-19T10:50:03.149Z,99842.88
2022-08-19T10:52:52.136Z,99830.72
2022-08-19T10:56:01.339Z,99832.22
2022-08-19T10:58:49.893Z,99832.50
2022-08-19T11:01:39.777Z,99825.09
2022-08-19T11:04:29.573Z,99829.28
2022-08-19T11:07:18.294Z,99828.28
2022-08-19T11:10:11.488Z,99819.31
2022-08-19T11:13:01.657Z,99803.09
2022-08-19T11:15:58.477Z,99808.88
2022-08-19T11:18:50.864Z,99793.84
2022-08-19T11:21:40.849Z,99804.19
2022-08-19T11:24:29.660Z,99797.94
2022-08-19T11:27:18.399Z,99803.38
2022-08-19T11:30:08.652Z,99791.94
2022-08-19T11:33:03.417Z,99795.19
2022-08-19T11:35:53.329Z,99786.59
2022-08-19T11:38:41.819Z,99790.00
2022-08-19T11:41:30.471Z,99776.72
2022-08-19T11:44:19.175Z,99780.81
2022-08-19T11:47:08.801Z,99784.16
2022-08-19T11:49:58.119Z,99791.09
2022-08-19T11:52:50.493Z,99792.00
2022-08-19T11:55:44.265Z,99796.22
2022-08-19T11:58:33.145Z,99790.19
2022-08-19T12:01:23.744Z,99791.69
2022-08-19T12:04:12.772Z,99779.53
2022-08-19T12:07:01.385Z,99800.03
2022-08-19T12:09:51.655Z,99805.97
2022-08-19T12:12:43.353Z,99805.56
2022-08-19T12:15:37.052Z,99806.25
2022-08-19T12:18:25.915Z,99807.09
2022-08-19T12:21:14.830Z,99802.72
2022-08-19T12:24:05.447Z,99802.81
2022-08-19T12:27:00.954Z,99789.16
2022-08-19T12:29:51.548Z,99807.16
2022-08-19T12:32:41.286Z,99785.91
2022-08-19T12:35:31.435Z,99807.91
2022-08-19T12:38:20.510Z,99805.34
2022-08-19T12:41:13.088Z,99813.84
2022-08-19T12:44:03.039Z,99804.28
2022-08-19T12:46:53.944Z,99806.25
2022-08-19T12:49:54.648Z,99756.00
2022-08-19T12:52:44.211Z,99785.84
2022-08-19T12:55:32.782Z,99797.53
2022-08-19T12:58:24.259Z,99779.03
2022-08-19T13:01:18.050Z,99773.34
2022-08-19T13:04:11.285Z,99789.41
2022-08-19T13:07:00.435Z,99794.91
2022-08-19T13:09:49.016Z,99791.31
2022-08-19T13:12:37.582Z,99786.09
2022-08-19T13:15:26.130Z,99782.44
2022-08-19T13:18:16.060Z,99733.06
2022-08-19T13:21:06.032Z,99773.72
2022-08-19T13:23:55.042Z,99777.81
2022-08-19T13:26:43.581Z,99781.97
2022-08-19T13:29:49.423Z,99762.19
2022-08-19T13:32:55.508Z,99792.09
2022-08-19T13:35:48.207Z,99788.06
2022-08-19T13:38:37.140Z,99781.44
2022-08-19T13:41:25.636Z,99787.59
2022-08-19T13:44:14.530Z,99780.97
2022-08-19T13:47:06.566Z,99780.97
2022-08-19T13:49:55.238Z,99781.16
2022-08-19T13:52:45.638Z,99770.28
2022-08-19T13:55:34.184Z,99776.94
2022-08-19T13:58:23.192Z,99775.91
2022-08-19T14:01:12.525Z,99764.34
2022-08-19T14:04:01.563Z,99776.81
2022-08-19T14:06:50.130Z,99773.19
2022-08-19T14:09:40.064Z,99771.00
2022-08-19T14:12:29.145Z,99771.97
2022-08-19T14:15:18.287Z,99767.78
2022-08-19T14:18:06.909Z,99766.78
2022-08-19T14:20:56.373Z,99763.59
2022-08-19T14:23:45.918Z,99768.44
2022-08-19T14:26:35.938Z,99756.13
2022-08-19T14:29:24.783Z,99747.31
2022-08-19T14:32:16.735Z,99750.78
2022-08-19T14:35:08.106Z,99714.53
2022-08-19T14:37:58.459Z,99741.69
2022-08-19T14:40:47.514Z,99747.13
2022-08-19T14:43:37.459Z,99751.34
2022-08-19T14:46:28.266Z,99735.50
2022-08-19T14:49:19.424Z,99747.50
2022-08-19T14:52:08.009Z,99740.75
2022-08-19T14:54:56.584Z,99744.06
2022-08-19T14:57:46.959Z,99724.56
2022-08-19T15:00:37.142Z,99749.00
2022-08-19T15:03:25.971Z,99743.16
2022-08-19T15:06:14.744Z,99748.31
2022-08-19T15:09:04.565Z,99739.34
2022-08-19T15:11:53.168Z,99748.91
2022-08-19T15:14:43.121Z,99752.00
2022-08-19T15:17:45.432Z,99753.53
2022-08-19T15:20:42.073Z,99741.84
2022-08-19T15:23:31.326Z,99746.09
2022-08-19T15:26:20.865Z,99728.44
2022-08-19T15:29:09.495Z,99757.13
2022-08-19T15:31:58.448Z,99757.97
2022-08-19T15:34:49.889Z,99763.50
2022-08-19T15:37:38.424Z,99760.28
2022-08-19T15:40:28.377Z,99757.56
2022-08-19T15:43:17.070Z,99756.53
2022-08-19T15:46:05.726Z,99668.66
2022-08-19T15:48:56.066Z,99759.63
2022-08-19T15:51:51.818Z,99749.75
2022-08-19T15:54:40.981Z,99758.19
2022-08-19T15:57:47.224Z,99762.56
2022-08-19T16:00:53.380Z,99756.38
2022-08-19T16:04:01.770Z,99761.97
2022-08-19T16:06:53.689Z,99755.88
2022-08-19T16:09:42.332Z,99730.16
2022-08-19T16:12:30.936Z,99762.38
2022-08-19T16:15:20.966Z,99761.06
2022-08-19T16:18:09.502Z,99759.19
2022-08-19T16:20:58.046Z,99749.78
2022-08-19T16:23:49.624Z,99748.41
2022-08-19T16:26:38.280Z,99763.75
2022-08-19T16:29:34.790Z,99751.28
2022-08-19T16:32:27.651Z,99759.41
2022-08-19T16:35:16.231Z,99752.94
2022-08-19T16:38:06.755Z,99753.59
2022-08-19T16:40:57.101Z,99751.16
2022-08-19T16:43:45.763Z,99743.88
2022-08-19T16:46:34.307Z,99753.25
2022-08-19T16:49:54.611Z,99756.69
2022-08-19T16:52:35.757Z,99757.34
2022-08-19T16:55:24.349Z,99763.81
2022-08-19T16:58:14.228Z,99760.25
2022-08-19T17:01:04.478Z,99763.31
2022-08-19T17:03:53.064Z,99770.09
2022-08-19T17:06:41.644Z,99765.88
2022-08-19T17:09:32.768Z,99763.63
2022-08-19T17:12:21.302Z,99765.28
2022-08-19T17:15:11.331Z,99773.91
2022-08-19T17:18:00.805Z,99765.34
2022-08-19T17:20:50.453Z,99769.88
2022-08-19T17:23:44.257Z,99771.84
2022-08-19T17:26:33.133Z,99780.25
2022-08-19T17:29:22.160Z,99781.72
2022-08-19T17:32:12.066Z,99776.69
2022-08-19T17:35:00.634Z,99787.91
2022-08-19T17:37:50.524Z,99780.78
2022-08-19T17:40:39.245Z,99783.25
2022-08-19T17:43:32.784Z,99754.59
2022-08-19T17:46:22.976Z,99750.84
2022-08-19T17:49:13.029Z,99775.16
2022-08-19T17:52:02.119Z,99702.41
2022-08-19T17:54:50.957Z,99803.84
2022-08-19T17:57:46.048Z,99789.88
2022-08-19T18:00:35.585Z,99786.41
2022-08-19T18:03:26.396Z,99782.97
2022-08-19T18:06:17.648Z,99778.22
2022-08-19T18:09:06.851Z,99780.16
2022-08-19T18:11:57.059Z,99788.56
2022-08-19T18:14:46.360Z,99796.22
2022-08-19T18:17:36.915Z,99791.66
2022-08-19T18:20:25.522Z,99804.28
2022-08-19T18:23:45.044Z,99560.13
2022-08-19T18:26:24.304Z,99791.41
2022-08-19T18:29:13.428Z,99804.16
2022-08-19T18:32:01.980Z,99807.50
2022-08-19T18:34:50.535Z,99806.94
2022-08-19T18:37:39.446Z,99798.81
2022-08-19T18:40:48.620Z,99768.88
2022-08-19T18:43:57.121Z,99818.44
2022-08-19T18:47:03.161Z,99819.88
2022-08-19T18:49:51.821Z,99820.75
2022-08-19T18:52:40.955Z,99791.63
2022-08-19T18:55:30.933Z,99829.84
2022-08-19T18:58:21.572Z,99837.28
2022-08-19T19:01:15.345Z,99813.66
2022-08-19T19:04:06.375Z,99844.59
2022-08-19T19:06:55.283Z,99839.56
2022-08-19T19:09:43.965Z,99851.88
2022-08-19T19:12:36.996Z,99826.66
2022-08-19T19:15:25.591Z,99850.22
2022-08-19T19:18:14.304Z,99865.19
2022-08-19T19:21:02.910Z,99856.44
2022-08-19T19:23:52.610Z,99865.75
2022-08-19T19:26:41.244Z,99864.34
2022-08-19T19:29:31.271Z,99871.97
2022-08-19T19:32:21.467Z,99860.59
2022-08-19T19:35:10.627Z,99872.31
2022-08-19T19:37:59.865Z,99863.03
2022-08-19T19:40:48.413Z,99875.59
2022-08-19T19:43:40.817Z,99878.31
2022-08-19T19:46:32.484Z,99877.78
2022-08-19T19:49:20.990Z,99883.84
2022-08-19T19:52:13.843Z,99857.19
2022-08-19T19:55:02.613Z,99874.97
2022-08-19T19:57:53.503Z,99888.63
2022-08-19T20:00:42.283Z,99893.56
2022-08-19T20:03:32.351Z,99893.31
2022-08-19T20:06:20.867Z,99905.56
2022-08-19T20:09:10.375Z,99905.72
2022-08-19T20:11:59.180Z,99902.69
2022-08-19T20:14:47.824Z,99919.09
2022-08-19T20:17:42.357Z,99916.91
2022-08-19T20:20:33.287Z,99927.22
2022-08-19T20:23:23.891Z,99930.16
2022-08-19T20:26:12.478Z,99942.38
2022-08-19T20:29:38.257Z,99919.56
2022-08-19T20:32:28.043Z,99860.50
2022-08-19T20:35:20.645Z,99953.13
2022-08-19T20:38:10.709Z,99952.38
2022-08-19T20:40:59.276Z,99965.19
2022-08-19T20:43:48.209Z,99963.56
2022-08-19T20:46:36.837Z,99959.13
2022-08-19T20:49:27.005Z,99958.53
2022-08-19T20:52:16.646Z,99959.00
2022-08-19T20:55:07.407Z,99963.94
2022-08-19T20:57:56.486Z,99966.09
2022-08-19T21:00:46.184Z,99967.44
2022-08-19T21:03:42.502Z,99973.44
2022-08-19T21:06:32.059Z,99979.38
2022-08-19T21:09:20.868Z,99978.31
2022-08-19T21:12:13.609Z,99985.78
2022-08-19T21:15:02.193Z,99986.53
2022-08-19T21:17:51.806Z,99986.91
2022-08-19T21:20:41.350Z,99988.81
2022-08-19T21:23:31.046Z,99996.28
2022-08-19T21:26:19.644Z,99986.75
2022-08-19T21:29:09.512Z,99995.47
2022-08-19T21:31:58.021Z,99997.69
2022-08-19T21:34:47.271Z,99998.28
2022-08-19T21:37:36.667Z,99998.63
2022-08-19T21:40:25.269Z,99990.06
2022-08-19T21:43:13.892Z,99884.69
2022-08-19T21:46:04.024Z,99999.84
2022-08-19T21:48:52.616Z,100005.41
2022-08-19T21:51:41.341Z,100001.06
2022-08-19T21:54:38.290Z,100007.69
2022-08-19T21:57:27.498Z,100013.75
2022-08-19T22:00:18.910Z,99993.38
2022-08-19T22:03:08.936Z,99978.97
2022-08-19T22:05:58.587Z,100013.81
2022-08-19T22:08:47.734Z,100020.91
2022-08-19T22:11:36.346Z,100012.47
2022-08-19T22:14:24.890Z,100016.59
2022-08-19T22:17:14.612Z,100004.03
2022-08-19T22:20:06.086Z,100023.06
2022-08-19T22:22:57.861Z,100023.47
2022-08-19T22:25:47.805Z,99996.53
2022-08-19T22:28:36.338Z,100030.16
2022-08-19T22:31:24.825Z,100028.28
2022-08-19T22:34:13.454Z,100026.47
2022-08-19T22:37:03.388Z,100024.78
2022-08-19T22:39:52.004Z,100015.84
2022-08-19T22:42:40.699Z,100018.03
2022-08-19T22:45:30.144Z,100022.66
2022-08-19T22:48:20.927Z,100021.88
2022-08-19T22:51:26.799Z,99994.66
2022-08-19T22:54:18.384Z,100019.44
2022-08-19T22:57:06.983Z,100023.28
2022-08-19T22:59:56.099Z,99992.28
2022-08-19T23:02:52.223Z,100011.91
2022-08-19T23:05:41.258Z,100021.47
2022-08-19T23:08:29.837Z,100022.81
2022-08-19T23:11:19.727Z,100026.94
2022-08-19T23:14:08.749Z,100028.34
2022-08-19T23:16:59.157Z,100021.75
2022-08-19T23:19:48.616Z,100025.59
2022-08-19T23:22:39.406Z,100018.75
2022-08-19T23:25:32.740Z,100018.50
2022-08-19T23:28:40.514Z,100020.44
2022-08-19T23:31:29.270Z,100012.53
2022-08-19T23:34:18.237Z,99883.81
2022-08-19T23:37:06.904Z,100008.47
2022-08-19T23:39:55.478Z,100007.41
2022-08-19T23:42:46.555Z,100009.59
2022-08-19T23:45:38.646Z,100001.94
2022-08-19T23:48:28.349Z,100008.53
2022-08-19T23:51:17.600Z,100006.28
2022-08-19T23:54:06.193Z,100010.47
2022-08-19T23:56:54.754Z,100013.72
2022-08-19T23:59:45.158Z,100005.28
